MSC Clorinda — 3FDW7 — position and weather

sailwx.info

Track history (hours):
 
Tides and Currents Weather Stations Pressure Air Temp Water Temp Dewpoint Dewpoint Depression Visibility Wind Speed Wind Dir Waves Ship Positions

MSC Clorinda

Last reported at 2016-Jul-23 00:31 UTC. Time now 2016-Jul-23 23:07 UTC.
Position N 32°03' E 031°09'.

Length 366 m; draft 13.7 m.

Type: Ship (hazmat cat A). MMSI: 373233000.

Date/timePositionNaut miles runAvg speedWind from/ knotsBaromVisibWave heightAir tempDewpointWater temp
2016-Jul-23 00:31N 32°03' E 031°09'1414.7
2016-Jul-22 23:33N 32°08' E 030°54'1414.3
2016-Jul-22 22:33N 32°15' E 030°39'1414.6
2016-Jul-22 21:34N 32°20' E 030°23'75217.1
2016-Jul-21 01:31N 37°25' E 016°25'1918.1
2016-Jul-21 00:29N 37°33' E 016°04'1617.6
2016-Jul-20 23:33N 37°42' E 015°47'1716.9
2016-Jul-20 22:33N 37°56' E 015°34'1817.8
2016-Jul-20 21:33N 38°13' E 015°36'1717.3
2016-Jul-20 20:33N 38°27' E 015°50'3 3.1
2016-Jul-20 19:29N 38°27' E 015°54'0 0.0
2016-Jul-20 18:32N 38°27' E 015°54'0 0.0
2016-Jul-20 17:32N 38°27' E 015°54'0 0.0
2016-Jul-20 16:29N 38°27' E 015°54'0 0.0
2016-Jul-20 15:32N 38°27' E 015°54'0 0.0
2016-Jul-20 14:32N 38°27' E 015°54'0 0.0
2016-Jul-20 13:32N 38°27' E 015°54'0 0.0
2016-Jul-20 12:32N 38°27' E 015°54'0 0.0
2016-Jul-20 11:26N 38°27' E 015°54'0 0.0
2016-Jul-20 10:32N 38°27' E 015°54'0 0.0
2016-Jul-20 09:32N 38°27' E 015°54'0 0.0
2016-Jul-20 08:29N 38°27' E 015°54'0 0.0
2016-Jul-20 07:32N 38°27' E 015°54'0 0.0
2016-Jul-20 06:29N 38°27' E 015°54'0 0.0
2016-Jul-20 05:32N 38°27' E 015°54'0 0.0
2016-Jul-20 04:32N 38°27' E 015°54'0 0.0
2016-Jul-20 03:29N 38°27' E 015°54'0 0.0
2016-Jul-20 02:32N 38°27' E 015°54'0 0.0
2016-Jul-20 01:32N 38°27' E 015°54'0 0.0
2016-Jul-19 22:20N 38°27' E 015°54'0 0.0
2016-Jul-19 21:32N 38°27' E 015°54'0 0.0
2016-Jul-19 20:32N 38°27' E 015°54'0 0.0
2016-Jul-19 19:32N 38°27' E 015°54'0 0.0
2016-Jul-19 18:32N 38°27' E 015°54'0 0.0
2016-Jul-19 17:32N 38°27' E 015°54'0 0.0
2016-Jul-19 16:32N 38°27' E 015°54'0 0.0
2016-Jul-19 15:32N 38°27' E 015°54'0 0.0
2016-Jul-19 14:32N 38°27' E 015°54'0 0.0
2016-Jul-19 13:32N 38°27' E 015°54'0 0.0
2016-Jul-19 12:32N 38°27' E 015°54'0 0.0
2016-Jul-19 11:32N 38°27' E 015°54'0 0.0
2016-Jul-19 10:29N 38°27' E 015°54'0 0.0
2016-Jul-19 09:32N 38°27' E 015°54'0 0.0
2016-Jul-19 08:29N 38°27' E 015°54'1 1.5
2016-Jul-19 07:33N 38°27' E 015°52'4 1.5
2016-Jul-19 04:33N 38°30' E 015°49'1 0.9
2016-Jul-19 03:33N 38°31' E 015°48'5 4.9
2016-Jul-19 02:33N 38°30' E 015°42'4 3.6
2016-Jul-19 01:32N 38°30' E 015°37'1 0.6
2016-Jul-19 00:33N 38°31' E 015°36'1 0.6
2016-Jul-18 23:33N 38°31' E 015°36'1 0.6
2016-Jul-18 22:33N 38°32' E 015°36'1 0.7
2016-Jul-18 21:33N 38°32' E 015°35'1 0.7
2016-Jul-18 20:33N 38°33' E 015°35'1 0.6
2016-Jul-18 19:29N 38°34' E 015°35'0 0.4
2016-Jul-18 18:33N 38°34' E 015°34'3 2.9
2016-Jul-18 17:33N 38°34' E 015°30'1111.4
2016-Jul-18 16:33N 38°39' E 015°17'1211.8
2016-Jul-18 15:33N 38°46' E 015°05'1212.4
2016-Jul-18 14:33N 38°54' E 014°53'1312.4
2016-Jul-18 13:32N 39°03' E 014°41'1212.4
2016-Jul-18 12:33N 39°11' E 014°29'1312.4
2016-Jul-18 11:32N 39°19' E 014°17'1212.3
2016-Jul-18 10:33N 39°27' E 014°05'1212.4
2016-Jul-18 09:33N 39°35' E 013°53'1212.3
2016-Jul-18 08:33N 39°43' E 013°41'1615.8
2016-Jul-18 07:34N 39°54' E 013°26'1817.7
2016-Jul-18 06:31N 40°06' E 013°07'3917.9
2016-Jul-18 04:19N 40°32' E 012°29'5218.5
2016-Jul-18 01:30N 41°06' E 011°37'2418.5
2016-Jul-18 00:12N 41°22' E 011°13'3618.2
2016-Jul-17 22:12N 41°46' E 010°37'1317.6
2016-Jul-17 21:27N 41°55' E 010°23'1617.7
2016-Jul-17 20:33N 42°05' E 010°07'3517.4
2016-Jul-17 18:33N 42°37' E 009°47'1817.6
2016-Jul-17 17:33N 42°54' E 009°42'1717.3
2016-Jul-17 16:34N 43°11' E 009°42'1817.6
2016-Jul-17 15:34N 43°28' E 009°45'1817.7
2016-Jul-17 14:34N 43°46' E 009°49'1717.4
2016-Jul-17 13:33N 44°03' E 009°52'4 3.6
2016-Jul-17 12:33N 44°06' E 009°51'0 0.0
2016-Jul-17 11:30N 44°06' E 009°51'0 0.0
2016-Jul-17 10:33N 44°06' E 009°51'0 0.0
2016-Jul-17 09:33N 44°06' E 009°51'0 0.0
2016-Jul-17 08:33N 44°06' E 009°51'0 0.0
2016-Jul-17 07:30N 44°06' E 009°51'0 0.0
2016-Jul-17 06:33N 44°06' E 009°51'0 0.0
2016-Jul-17 04:33N 44°06' E 009°51'0 0.0
2016-Jul-17 03:33N 44°06' E 009°51'0 0.0
2016-Jul-17 02:33N 44°06' E 009°51'0 0.0
2016-Jul-17 01:33N 44°06' E 009°51'0 0.0
2016-Jul-17 00:33N 44°06' E 009°51'0 0.0
2016-Jul-16 23:33N 44°06' E 009°51'0 0.0
2016-Jul-16 22:33N 44°06' E 009°51'0 0.0
2016-Jul-16 21:33N 44°06' E 009°51'0 0.0
2016-Jul-16 20:30N 44°06' E 009°51'0 0.0
2016-Jul-16 19:33N 44°06' E 009°51'0 0.0
2016-Jul-16 18:33N 44°06' E 009°51'0 0.0
2016-Jul-16 17:33N 44°06' E 009°51'0 0.0
2016-Jul-16 16:33N 44°06' E 009°51'0 0.3
2016-Jul-16 15:34N 44°06' E 009°51'8 7.6
2016-Jul-16 14:33N 43°59' E 009°54'1717.4
2016-Jul-16 13:33N 43°48' E 009°36'2121.0
2016-Jul-16 12:33N 43°35' E 009°12'2121.2
2016-Jul-16 11:33N 43°24' E 008°47'2221.7
2016-Jul-16 10:33N 43°13' E 008°22'2221.6
2016-Jul-16 09:33N 43°02' E 007°56'2121.3
2016-Jul-16 08:33N 42°51' E 007°32'2121.4
2016-Jul-16 07:33N 42°39' E 007°07'2221.2
2016-Jul-16 06:32N 42°28' E 006°42'14320.5
2016-Jul-15 23:33N 41°13' E 003°58'2121.4
2016-Jul-15 22:33N 41°02' E 003°34'2121.4
2016-Jul-15 21:33N 40°51' E 003°10'2221.8
2016-Jul-15 20:33N 40°40' E 002°45'2221.8
2016-Jul-15 19:33N 40°29' E 002°21'2221.7
2016-Jul-15 18:33N 40°17' E 001°57'2221.5
2016-Jul-15 17:33N 40°05' E 001°33'2121.3
2016-Jul-15 16:33N 39°54' E 001°09'6421.0
2016-Jul-15 13:29N 39°28' W 000°07'1010.3
2016-Jul-15 12:33N 39°26' W 000°19'0 0.1
2016-Jul-15 11:28N 39°26' W 000°19'0 0.0
2016-Jul-15 10:31N 39°26' W 000°19'0 0.0
2016-Jul-15 09:31N 39°26' W 000°19'0 0.0
2016-Jul-15 08:31N 39°26' W 000°19'0 0.0
2016-Jul-15 07:31N 39°26' W 000°19'0 0.0
2016-Jul-15 06:31N 39°26' W 000°19'0 0.0
2016-Jul-15 05:31N 39°26' W 000°19'0 0.0
2016-Jul-15 04:31N 39°26' W 000°19'0 0.0
2016-Jul-15 03:31N 39°26' W 000°19'0 0.0
2016-Jul-15 02:31N 39°26' W 000°19'0 0.0
2016-Jul-15 01:31N 39°26' W 000°19'0 0.0
2016-Jul-15 00:25N 39°26' W 000°19'0 0.0
2016-Jul-14 23:31N 39°26' W 000°19'0 0.0
2016-Jul-14 22:31N 39°26' W 000°19'0 0.0
2016-Jul-14 21:31N 39°26' W 000°19'0 0.0
2016-Jul-14 20:31N 39°26' W 000°19'0 0.0
2016-Jul-14 19:31N 39°26' W 000°19'0 0.0
2016-Jul-14 18:31N 39°26' W 000°19'0 0.0
2016-Jul-14 17:31N 39°26' W 000°19'0 0.0
2016-Jul-14 16:31N 39°26' W 000°19'0 0.0
2016-Jul-14 15:31N 39°26' W 000°19'0 0.0
2016-Jul-14 14:31N 39°26' W 000°19'0 0.0
2016-Jul-14 13:31N 39°26' W 000°19'0 0.0
2016-Jul-14 12:28N 39°26' W 000°19'0 0.0
2016-Jul-14 11:31N 39°26' W 000°19'0 0.0
2016-Jul-14 10:31N 39°26' W 000°19'0 0.0
2016-Jul-14 09:31N 39°26' W 000°19'0 0.0
2016-Jul-14 08:31N 39°26' W 000°19'0 0.0
2016-Jul-14 07:31N 39°26' W 000°19'0 0.0
2016-Jul-14 06:31N 39°26' W 000°19'0 0.0
2016-Jul-14 05:31N 39°26' W 000°19'0 0.0
2016-Jul-14 04:31N 39°26' W 000°19'0 0.0
2016-Jul-14 03:31N 39°26' W 000°19'0 0.0
2016-Jul-14 02:28N 39°26' W 000°19'0 0.0
2016-Jul-14 01:31N 39°26' W 000°19'0 0.0
2016-Jul-14 00:31N 39°26' W 000°19'0 0.0
2016-Jul-13 23:31N 39°26' W 000°19'0 0.0
2016-Jul-13 22:31N 39°26' W 000°19'0 0.0
2016-Jul-13 21:31N 39°26' W 000°19'0 0.0
2016-Jul-13 20:31N 39°26' W 000°19'0 0.0
2016-Jul-13 19:31N 39°26' W 000°19'0 0.0
2016-Jul-13 18:31N 39°26' W 000°19'0 0.0
2016-Jul-13 17:31N 39°26' W 000°19'0 0.0
2016-Jul-13 16:31N 39°26' W 000°19'0 0.0
2016-Jul-13 15:31N 39°26' W 000°19'0 0.0
2016-Jul-13 14:16N 39°26' W 000°19'0 0.0
2016-Jul-13 13:31N 39°26' W 000°19'0 0.0
2016-Jul-13 12:28N 39°26' W 000°19'0 0.0
2016-Jul-13 11:31N 39°26' W 000°19'0 0.0
2016-Jul-13 10:25N 39°26' W 000°19'0 0.0
2016-Jul-13 09:31N 39°26' W 000°19'0 0.0
2016-Jul-13 08:31N 39°26' W 000°19'0 0.0
2016-Jul-13 07:31N 39°26' W 000°19'0 0.0
2016-Jul-13 06:31N 39°26' W 000°19'0 0.0
2016-Jul-13 05:31N 39°26' W 000°19'0 0.0
2016-Jul-13 04:31N 39°26' W 000°19'0 0.0
2016-Jul-13 03:31N 39°26' W 000°19'0 0.0
2016-Jul-13 02:31N 39°26' W 000°19'0 0.0
2016-Jul-13 01:31N 39°26' W 000°19'  
Track history (hours):
 
Tides and Currents Weather Stations Pressure Air Temp Water Temp Dewpoint Dewpoint Depression Visibility Wind Speed Wind Dir Waves Ship Positions

MSC Clorinda

Last reported at 2016-Jul-23 00:31 UTC. Time now 2016-Jul-23 23:07 UTC.
Position N 32°03' E 031°09'.

Length 366 m; draft 13.7 m.

Type: Ship (hazmat cat A). MMSI: 373233000.

Date/timePositionNaut miles runAvg speedWind from/ knotsBaromVisibWave heightAir tempDewpointWater temp
2016-Jul-23 00:31N 32°03' E 031°09'1414.7
2016-Jul-22 23:33N 32°08' E 030°54'1414.3
2016-Jul-22 22:33N 32°15' E 030°39'1414.6
2016-Jul-22 21:34N 32°20' E 030°23'75217.1
2016-Jul-21 01:31N 37°25' E 016°25'1918.1
2016-Jul-21 00:29N 37°33' E 016°04'1617.6
2016-Jul-20 23:33N 37°42' E 015°47'1716.9
2016-Jul-20 22:33N 37°56' E 015°34'1817.8
2016-Jul-20 21:33N 38°13' E 015°36'1717.3
2016-Jul-20 20:33N 38°27' E 015°50'3 3.1
2016-Jul-20 19:29N 38°27' E 015°54'0 0.0
2016-Jul-20 18:32N 38°27' E 015°54'0 0.0
2016-Jul-20 17:32N 38°27' E 015°54'0 0.0
2016-Jul-20 16:29N 38°27' E 015°54'0 0.0
2016-Jul-20 15:32N 38°27' E 015°54'0 0.0
2016-Jul-20 14:32N 38°27' E 015°54'0 0.0
2016-Jul-20 13:32N 38°27' E 015°54'0 0.0
2016-Jul-20 12:32N 38°27' E 015°54'0 0.0
2016-Jul-20 11:26N 38°27' E 015°54'0 0.0
2016-Jul-20 10:32N 38°27' E 015°54'0 0.0
2016-Jul-20 09:32N 38°27' E 015°54'0 0.0
2016-Jul-20 08:29N 38°27' E 015°54'0 0.0
2016-Jul-20 07:32N 38°27' E 015°54'0 0.0
2016-Jul-20 06:29N 38°27' E 015°54'0 0.0
2016-Jul-20 05:32N 38°27' E 015°54'0 0.0
2016-Jul-20 04:32N 38°27' E 015°54'0 0.0
2016-Jul-20 03:29N 38°27' E 015°54'0 0.0
2016-Jul-20 02:32N 38°27' E 015°54'0 0.0
2016-Jul-20 01:32N 38°27' E 015°54'0 0.0
2016-Jul-19 22:20N 38°27' E 015°54'0 0.0
2016-Jul-19 21:32N 38°27' E 015°54'0 0.0
2016-Jul-19 20:32N 38°27' E 015°54'0 0.0
2016-Jul-19 19:32N 38°27' E 015°54'0 0.0
2016-Jul-19 18:32N 38°27' E 015°54'0 0.0
2016-Jul-19 17:32N 38°27' E 015°54'0 0.0
2016-Jul-19 16:32N 38°27' E 015°54'0 0.0
2016-Jul-19 15:32N 38°27' E 015°54'0 0.0
2016-Jul-19 14:32N 38°27' E 015°54'0 0.0
2016-Jul-19 13:32N 38°27' E 015°54'0 0.0
2016-Jul-19 12:32N 38°27' E 015°54'0 0.0
2016-Jul-19 11:32N 38°27' E 015°54'0 0.0
2016-Jul-19 10:29N 38°27' E 015°54'0 0.0
2016-Jul-19 09:32N 38°27' E 015°54'0 0.0
2016-Jul-19 08:29N 38°27' E 015°54'1 1.5
2016-Jul-19 07:33N 38°27' E 015°52'4 1.5
2016-Jul-19 04:33N 38°30' E 015°49'1 0.9
2016-Jul-19 03:33N 38°31' E 015°48'5 4.9
2016-Jul-19 02:33N 38°30' E 015°42'4 3.6
2016-Jul-19 01:32N 38°30' E 015°37'1 0.6
2016-Jul-19 00:33N 38°31' E 015°36'1 0.6
2016-Jul-18 23:33N 38°31' E 015°36'1 0.6
2016-Jul-18 22:33N 38°32' E 015°36'1 0.7
2016-Jul-18 21:33N 38°32' E 015°35'1 0.7
2016-Jul-18 20:33N 38°33' E 015°35'1 0.6
2016-Jul-18 19:29N 38°34' E 015°35'0 0.4
2016-Jul-18 18:33N 38°34' E 015°34'3 2.9
2016-Jul-18 17:33N 38°34' E 015°30'1111.4
2016-Jul-18 16:33N 38°39' E 015°17'1211.8
2016-Jul-18 15:33N 38°46' E 015°05'1212.4
2016-Jul-18 14:33N 38°54' E 014°53'1312.4
2016-Jul-18 13:32N 39°03' E 014°41'1212.4
2016-Jul-18 12:33N 39°11' E 014°29'1312.4
2016-Jul-18 11:32N 39°19' E 014°17'1212.3
2016-Jul-18 10:33N 39°27' E 014°05'1212.4
2016-Jul-18 09:33N 39°35' E 013°53'1212.3
2016-Jul-18 08:33N 39°43' E 013°41'1615.8
2016-Jul-18 07:34N 39°54' E 013°26'1817.7
2016-Jul-18 06:31N 40°06' E 013°07'3917.9
2016-Jul-18 04:19N 40°32' E 012°29'5218.5
2016-Jul-18 01:30N 41°06' E 011°37'2418.5
2016-Jul-18 00:12N 41°22' E 011°13'3618.2
2016-Jul-17 22:12N 41°46' E 010°37'1317.6
2016-Jul-17 21:27N 41°55' E 010°23'1617.7
2016-Jul-17 20:33N 42°05' E 010°07'3517.4
2016-Jul-17 18:33N 42°37' E 009°47'1817.6
2016-Jul-17 17:33N 42°54' E 009°42'1717.3
2016-Jul-17 16:34N 43°11' E 009°42'1817.6
2016-Jul-17 15:34N 43°28' E 009°45'1817.7
2016-Jul-17 14:34N 43°46' E 009°49'1717.4
2016-Jul-17 13:33N 44°03' E 009°52'4 3.6
2016-Jul-17 12:33N 44°06' E 009°51'0 0.0
2016-Jul-17 11:30N 44°06' E 009°51'0 0.0
2016-Jul-17 10:33N 44°06' E 009°51'0 0.0
2016-Jul-17 09:33N 44°06' E 009°51'0 0.0
2016-Jul-17 08:33N 44°06' E 009°51'0 0.0
2016-Jul-17 07:30N 44°06' E 009°51'0 0.0
2016-Jul-17 06:33N 44°06' E 009°51'0 0.0
2016-Jul-17 04:33N 44°06' E 009°51'0 0.0
2016-Jul-17 03:33N 44°06' E 009°51'0 0.0
2016-Jul-17 02:33N 44°06' E 009°51'0 0.0
2016-Jul-17 01:33N 44°06' E 009°51'0 0.0
2016-Jul-17 00:33N 44°06' E 009°51'0 0.0
2016-Jul-16 23:33N 44°06' E 009°51'0 0.0
2016-Jul-16 22:33N 44°06' E 009°51'0 0.0
2016-Jul-16 21:33N 44°06' E 009°51'0 0.0
2016-Jul-16 20:30N 44°06' E 009°51'0 0.0
2016-Jul-16 19:33N 44°06' E 009°51'0 0.0
2016-Jul-16 18:33N 44°06' E 009°51'0 0.0
2016-Jul-16 17:33N 44°06' E 009°51'0 0.0
2016-Jul-16 16:33N 44°06' E 009°51'0 0.3
2016-Jul-16 15:34N 44°06' E 009°51'8 7.6
2016-Jul-16 14:33N 43°59' E 009°54'1717.4
2016-Jul-16 13:33N 43°48' E 009°36'2121.0
2016-Jul-16 12:33N 43°35' E 009°12'2121.2
2016-Jul-16 11:33N 43°24' E 008°47'2221.7
2016-Jul-16 10:33N 43°13' E 008°22'2221.6
2016-Jul-16 09:33N 43°02' E 007°56'2121.3
2016-Jul-16 08:33N 42°51' E 007°32'2121.4
2016-Jul-16 07:33N 42°39' E 007°07'2221.2
2016-Jul-16 06:32N 42°28' E 006°42'14320.5
2016-Jul-15 23:33N 41°13' E 003°58'2121.4
2016-Jul-15 22:33N 41°02' E 003°34'2121.4
2016-Jul-15 21:33N 40°51' E 003°10'2221.8
2016-Jul-15 20:33N 40°40' E 002°45'2221.8
2016-Jul-15 19:33N 40°29' E 002°21'2221.7
2016-Jul-15 18:33N 40°17' E 001°57'2221.5
2016-Jul-15 17:33N 40°05' E 001°33'2121.3
2016-Jul-15 16:33N 39°54' E 001°09'6421.0
2016-Jul-15 13:29N 39°28' W 000°07'1010.3
2016-Jul-15 12:33N 39°26' W 000°19'0 0.1
2016-Jul-15 11:28N 39°26' W 000°19'0 0.0
2016-Jul-15 10:31N 39°26' W 000°19'0 0.0
2016-Jul-15 09:31N 39°26' W 000°19'0 0.0
2016-Jul-15 08:31N 39°26' W 000°19'0 0.0
2016-Jul-15 07:31N 39°26' W 000°19'0 0.0
2016-Jul-15 06:31N 39°26' W 000°19'0 0.0
2016-Jul-15 05:31N 39°26' W 000°19'0 0.0
2016-Jul-15 04:31N 39°26' W 000°19'0 0.0
2016-Jul-15 03:31N 39°26' W 000°19'0 0.0
2016-Jul-15 02:31N 39°26' W 000°19'0 0.0
2016-Jul-15 01:31N 39°26' W 000°19'0 0.0
2016-Jul-15 00:25N 39°26' W 000°19'0 0.0
2016-Jul-14 23:31N 39°26' W 000°19'0 0.0
2016-Jul-14 22:31N 39°26' W 000°19'0 0.0
2016-Jul-14 21:31N 39°26' W 000°19'0 0.0
2016-Jul-14 20:31N 39°26' W 000°19'0 0.0
2016-Jul-14 19:31N 39°26' W 000°19'0 0.0
2016-Jul-14 18:31N 39°26' W 000°19'0 0.0
2016-Jul-14 17:31N 39°26' W 000°19'0 0.0
2016-Jul-14 16:31N 39°26' W 000°19'0 0.0
2016-Jul-14 15:31N 39°26' W 000°19'0 0.0
2016-Jul-14 14:31N 39°26' W 000°19'0 0.0
2016-Jul-14 13:31N 39°26' W 000°19'0 0.0
2016-Jul-14 12:28N 39°26' W 000°19'0 0.0
2016-Jul-14 11:31N 39°26' W 000°19'0 0.0
2016-Jul-14 10:31N 39°26' W 000°19'0 0.0
2016-Jul-14 09:31N 39°26' W 000°19'0 0.0
2016-Jul-14 08:31N 39°26' W 000°19'0 0.0
2016-Jul-14 07:31N 39°26' W 000°19'0 0.0
2016-Jul-14 06:31N 39°26' W 000°19'0 0.0
2016-Jul-14 05:31N 39°26' W 000°19'0 0.0
2016-Jul-14 04:31N 39°26' W 000°19'0 0.0
2016-Jul-14 03:31N 39°26' W 000°19'0 0.0
2016-Jul-14 02:28N 39°26' W 000°19'0 0.0
2016-Jul-14 01:31N 39°26' W 000°19'0 0.0
2016-Jul-14 00:31N 39°26' W 000°19'0 0.0
2016-Jul-13 23:31N 39°26' W 000°19'0 0.0
2016-Jul-13 22:31N 39°26' W 000°19'0 0.0
2016-Jul-13 21:31N 39°26' W 000°19'0 0.0
2016-Jul-13 20:31N 39°26' W 000°19'0 0.0
2016-Jul-13 19:31N 39°26' W 000°19'0 0.0
2016-Jul-13 18:31N 39°26' W 000°19'0 0.0
2016-Jul-13 17:31N 39°26' W 000°19'0 0.0
2016-Jul-13 16:31N 39°26' W 000°19'0 0.0
2016-Jul-13 15:31N 39°26' W 000°19'0 0.0
2016-Jul-13 14:16N 39°26' W 000°19'0 0.0
2016-Jul-13 13:31N 39°26' W 000°19'0 0.0
2016-Jul-13 12:28N 39°26' W 000°19'0 0.0
2016-Jul-13 11:31N 39°26' W 000°19'0 0.0
2016-Jul-13 10:25N 39°26' W 000°19'0 0.0
2016-Jul-13 09:31N 39°26' W 000°19'0 0.0
2016-Jul-13 08:31N 39°26' W 000°19'0 0.0
2016-Jul-13 07:31N 39°26' W 000°19'0 0.0
2016-Jul-13 06:31N 39°26' W 000°19'0 0.0
2016-Jul-13 05:31N 39°26' W 000°19'0 0.0
2016-Jul-13 04:31N 39°26' W 000°19'0 0.0
2016-Jul-13 03:31N 39°26' W 000°19'0 0.0
2016-Jul-13 02:31N 39°26' W 000°19'0 0.0
2016-Jul-13 01:31N 39°26' W 000°19'  

Dump ship's entire track history